createdAt,value
2022-08-04T00:01:54.029Z,99.90
2022-08-04T00:07:47.375Z,99.90
2022-08-04T00:10:18.931Z,99.90
2022-08-04T00:12:51.412Z,99.90
2022-08-04T00:15:20.277Z,99.90
2022-08-04T00:18:09.732Z,99.90
2022-08-04T00:20:42.629Z,99.90
2022-08-04T00:23:10.983Z,99.90
2022-08-04T00:25:41.959Z,99.90
2022-08-04T00:28:10.125Z,99.90
2022-08-04T00:30:37.706Z,99.90
2022-08-04T00:33:05.196Z,99.90
2022-08-04T00:38:02.733Z,99.90
2022-08-04T00:40:48.301Z,99.90
2022-08-04T00:43:39.653Z,99.90
2022-08-04T00:46:40.588Z,99.90
2022-08-04T00:52:31.392Z,99.90
2022-08-04T01:03:51.417Z,99.90
2022-08-04T01:06:39.889Z,99.90
2022-08-04T01:09:48.609Z,99.90
2022-08-04T01:18:02.756Z,99.90
2022-08-04T01:21:12.958Z,99.90
2022-08-04T01:24:28.819Z,99.90
2022-08-04T01:28:00.699Z,99.90
2022-08-04T01:33:14.405Z,99.90
2022-08-04T01:38:26.622Z,99.90
2022-08-04T01:41:03.004Z,99.90
2022-08-04T01:43:33.389Z,99.90
2022-08-04T01:46:05.685Z,99.90
2022-08-04T01:48:39.400Z,99.90
2022-08-04T01:51:10.060Z,99.90
2022-08-04T01:53:43.246Z,99.90
2022-08-04T01:56:13.084Z,99.90
2022-08-04T01:58:41.698Z,99.90
2022-08-04T02:01:13.316Z,99.90
2022-08-04T02:04:18.242Z,99.90
2022-08-04T02:06:49.540Z,99.90
2022-08-04T02:09:54.665Z,99.90
2022-08-04T02:12:37.647Z,99.90
2022-08-04T02:15:42.508Z,99.90
2022-08-04T02:18:28.314Z,99.90
2022-08-04T02:21:02.175Z,99.90
2022-08-04T02:23:39.400Z,99.90
2022-08-04T02:26:22.794Z,99.90
2022-08-04T02:29:16.921Z,99.90
2022-08-04T02:32:01.601Z,99.90
2022-08-04T02:34:36.387Z,99.90
2022-08-04T02:37:06.354Z,99.90
2022-08-04T02:39:48.105Z,99.90
2022-08-04T02:42:18.472Z,99.90
2022-08-04T02:44:51.903Z,99.90
2022-08-04T02:47:23.242Z,99.90
2022-08-04T02:50:14.924Z,99.90
2022-08-04T02:53:02.927Z,99.90
2022-08-04T02:58:02.824Z,99.90
2022-08-04T03:03:06.195Z,99.90
2022-08-04T03:06:13.563Z,99.90
2022-08-04T03:09:29.505Z,99.90
2022-08-04T03:13:15.451Z,99.90
2022-08-04T03:16:18.772Z,99.90
2022-08-04T03:24:58.079Z,99.90
2022-08-04T03:27:59.415Z,99.90
2022-08-04T03:30:57.333Z,99.90
2022-08-04T03:33:51.294Z,99.90
2022-08-04T03:39:40.319Z,99.90
2022-08-04T03:42:38.505Z,99.90
2022-08-04T03:45:36.386Z,99.90
2022-08-04T03:48:30.641Z,99.90
2022-08-04T03:52:09.728Z,99.90
2022-08-04T03:55:17.530Z,99.90
2022-08-04T03:58:22.361Z,99.90
2022-08-04T04:01:17.526Z,99.90
2022-08-04T04:04:26.424Z,99.90
2022-08-04T04:07:36.131Z,99.90
2022-08-04T04:10:31.091Z,99.90
2022-08-04T04:16:06.926Z,99.90
2022-08-04T04:19:29.368Z,99.90
2022-08-04T04:23:13.919Z,99.90
2022-08-04T04:26:04.366Z,99.90
2022-08-04T04:29:07.720Z,99.90
2022-08-04T04:32:05.303Z,99.90
2022-08-04T04:34:57.090Z,99.90
2022-08-04T04:37:57.813Z,99.90
2022-08-04T04:40:52.066Z,99.90
2022-08-04T04:44:15.739Z,99.90
2022-08-04T04:47:43.000Z,99.90
2022-08-04T04:50:35.011Z,99.90
2022-08-04T04:53:45.172Z,99.90
2022-08-04T04:56:23.348Z,99.90
2022-08-04T04:58:55.806Z,99.90
2022-08-04T05:01:49.215Z,99.90
2022-08-04T05:05:05.627Z,99.90
2022-08-04T05:08:43.182Z,99.90
2022-08-04T05:11:48.626Z,99.90
2022-08-04T05:14:38.495Z,99.90
2022-08-04T05:17:33.518Z,99.90
2022-08-04T05:20:09.181Z,99.90
2022-08-04T05:22:37.127Z,99.90
2022-08-04T05:25:31.306Z,99.90
2022-08-04T05:28:18.932Z,99.90
2022-08-04T05:31:00.571Z,99.60
2022-08-04T05:33:53.575Z,99.90
2022-08-04T05:36:41.388Z,98.30
2022-08-04T05:39:21.899Z,96.00
2022-08-04T05:41:55.613Z,96.40
2022-08-04T05:44:28.772Z,93.50
2022-08-04T05:46:59.198Z,91.20
2022-08-04T05:49:30.537Z,87.10
2022-08-04T05:52:02.920Z,83.80
2022-08-04T05:54:36.910Z,82.40
2022-08-04T05:57:07.713Z,80.60
2022-08-04T05:59:43.433Z,77.40
2022-08-04T06:02:11.804Z,78.10
2022-08-04T06:04:43.769Z,74.40
2022-08-04T06:07:12.313Z,73.50
2022-08-04T06:12:19.869Z,73.60
2022-08-04T06:14:53.098Z,71.50
2022-08-04T06:19:57.815Z,72.30
2022-08-04T06:20:26.444Z,70.60
2022-08-04T06:23:00.911Z,71.50
2022-08-04T06:25:43.573Z,69.40
2022-08-04T06:30:48.338Z,64.10
2022-08-04T06:33:55.130Z,66.80
2022-08-04T06:36:23.591Z,67.70
2022-08-04T06:44:06.703Z,58.30
2022-08-04T06:46:41.581Z,54.50
2022-08-04T06:49:09.987Z,54.10
2022-08-04T06:51:49.052Z,49.50
2022-08-04T06:54:16.980Z,50.10
2022-08-04T06:56:50.078Z,46.60
2022-08-04T06:59:20.006Z,43.70
2022-08-04T07:01:50.352Z,43.30
2022-08-04T07:04:20.373Z,43.20
2022-08-04T07:06:48.833Z,44.00
2022-08-04T07:09:21.804Z,42.10
2022-08-04T07:11:50.203Z,41.90
2022-08-04T07:14:18.374Z,40.80
2022-08-04T07:16:48.909Z,41.50
2022-08-04T07:19:19.106Z,40.80
2022-08-04T07:22:24.603Z,40.20
2022-08-04T07:24:38.780Z,36.70
2022-08-04T07:27:09.861Z,37.10
2022-08-04T07:29:38.664Z,35.80
2022-08-04T07:32:07.257Z,34.30
2022-08-04T07:34:39.511Z,32.90
2022-08-04T07:39:47.821Z,31.40
2022-08-04T07:42:20.676Z,31.30
2022-08-04T07:44:48.592Z,34.10
2022-08-04T07:49:55.737Z,30.80
2022-08-04T07:52:29.182Z,30.20
2022-08-04T07:54:57.106Z,32.60
2022-08-04T07:57:41.160Z,29.70
2022-08-04T08:00:12.425Z,30.60
2022-08-04T08:02:43.607Z,29.40
2022-08-04T08:05:17.032Z,28.50
2022-08-04T08:07:54.701Z,29.40
2022-08-04T08:10:24.368Z,27.10
2022-08-04T08:12:53.953Z,27.70
2022-08-04T08:15:22.508Z,27.90
2022-08-04T08:17:59.667Z,27.30
2022-08-04T08:20:32.619Z,28.10
2022-08-04T08:23:03.637Z,28.80
2022-08-04T08:25:33.942Z,27.60
2022-08-04T08:28:05.525Z,25.00
2022-08-04T08:30:34.757Z,25.10
2022-08-04T08:33:13.799Z,25.90
2022-08-04T08:35:56.847Z,26.60
2022-08-04T08:38:58.091Z,24.30
2022-08-04T08:42:19.519Z,27.20
2022-08-04T08:45:17.693Z,27.10
2022-08-04T08:48:29.649Z,27.10
2022-08-04T08:51:31.768Z,25.50
2022-08-04T08:54:47.557Z,26.90
2022-08-04T08:57:29.773Z,24.90
2022-08-04T09:00:44.796Z,26.70
2022-08-04T09:03:57.518Z,24.50
2022-08-04T09:07:24.905Z,24.80
2022-08-04T09:10:23.047Z,25.60
2022-08-04T09:13:44.051Z,24.50
2022-08-04T09:16:39.711Z,26.10
2022-08-04T09:19:38.228Z,23.40
2022-08-04T09:22:34.006Z,25.80
2022-08-04T09:25:11.800Z,24.90
2022-08-04T09:28:05.844Z,23.10
2022-08-04T09:30:49.129Z,24.40
2022-08-04T09:33:44.530Z,22.70
2022-08-04T09:36:39.810Z,26.00
2022-08-04T09:39:12.180Z,24.10
2022-08-04T09:42:01.520Z,23.50
2022-08-04T09:44:55.247Z,22.90
2022-08-04T09:47:47.666Z,22.30
2022-08-04T09:50:36.777Z,24.10
2022-08-04T09:53:50.195Z,23.20
2022-08-04T09:56:49.347Z,24.30
2022-08-04T10:00:10.213Z,21.80
2022-08-04T10:02:52.493Z,24.30
2022-08-04T10:05:29.717Z,21.80
2022-08-04T10:08:16.249Z,23.50
2022-08-04T10:11:18.870Z,22.70
2022-08-04T10:14:33.661Z,22.20
2022-08-04T10:17:33.286Z,25.00
2022-08-04T10:20:14.355Z,22.40
2022-08-04T10:23:55.962Z,26.20
2022-08-04T10:26:29.605Z,23.30
2022-08-04T10:29:12.892Z,23.40
2022-08-04T10:32:07.062Z,24.00
2022-08-04T10:34:51.099Z,23.40
2022-08-04T10:37:59.267Z,23.70
2022-08-04T10:40:37.419Z,27.00
2022-08-04T10:43:33.524Z,25.10
2022-08-04T10:46:11.068Z,25.50
2022-08-04T10:49:07.711Z,26.80
2022-08-04T10:52:02.203Z,25.80
2022-08-04T10:55:09.941Z,26.30
2022-08-04T10:57:46.322Z,22.60
2022-08-04T11:00:19.933Z,26.00
2022-08-04T11:03:07.217Z,25.60
2022-08-04T11:05:55.055Z,22.60
2022-08-04T11:08:37.294Z,25.70
2022-08-04T11:11:31.161Z,25.00
2022-08-04T11:14:37.706Z,25.90
2022-08-04T11:17:17.458Z,24.50
2022-08-04T11:20:35.019Z,24.50
2022-08-04T11:23:17.107Z,24.60
2022-08-04T11:26:24.573Z,24.40
2022-08-04T11:29:05.941Z,25.50
2022-08-04T11:31:42.266Z,23.90
2022-08-04T11:37:43.352Z,24.50
2022-08-04T11:40:25.262Z,24.70
2022-08-04T11:43:10.884Z,26.10
2022-08-04T11:45:57.040Z,24.50
2022-08-04T11:48:35.890Z,24.50
2022-08-04T11:51:09.697Z,25.80
2022-08-04T11:53:42.607Z,27.60
2022-08-04T11:56:36.480Z,26.30
2022-08-04T11:59:10.809Z,25.90
2022-08-04T12:02:07.890Z,27.80
2022-08-04T12:07:44.501Z,24.90
2022-08-04T12:10:43.635Z,29.30
2022-08-04T12:13:40.994Z,26.30
2022-08-04T12:16:30.756Z,24.70
2022-08-04T12:19:03.152Z,27.60
2022-08-04T12:21:50.482Z,28.80
2022-08-04T12:25:01.775Z,29.50
2022-08-04T12:27:36.280Z,28.50
2022-08-04T12:30:59.876Z,26.70
2022-08-04T12:33:10.956Z,28.80
2022-08-04T12:36:10.530Z,29.60
2022-08-04T12:38:49.839Z,25.50
2022-08-04T12:41:26.159Z,25.90
2022-08-04T12:46:28.126Z,26.30
2022-08-04T12:49:03.862Z,25.50
2022-08-04T12:52:07.778Z,26.30
2022-08-04T12:54:30.676Z,27.30
2022-08-04T12:57:01.457Z,29.80
2022-08-04T12:59:38.818Z,27.00
2022-08-04T13:02:25.218Z,27.20
2022-08-04T13:04:55.432Z,27.70
2022-08-04T13:07:26.914Z,28.20
2022-08-04T13:09:54.985Z,30.00
2022-08-04T13:12:32.862Z,27.90
2022-08-04T13:15:21.033Z,27.10
2022-08-04T13:18:04.249Z,26.50
2022-08-04T13:20:38.273Z,27.80
2022-08-04T13:23:21.598Z,28.60
2022-08-04T13:28:45.234Z,28.60
2022-08-04T13:30:24.377Z,28.90
2022-08-04T13:31:19.958Z,27.80
2022-08-04T13:33:51.655Z,28.20
2022-08-04T13:36:24.553Z,28.50
2022-08-04T13:39:00.074Z,28.50
2022-08-04T13:41:31.204Z,28.90
2022-08-04T13:44:17.445Z,27.90
2022-08-04T13:47:22.749Z,27.50
2022-08-04T13:50:15.076Z,26.70
2022-08-04T13:55:44.021Z,33.10
2022-08-04T13:58:21.621Z,28.40
2022-08-04T14:01:00.097Z,27.80
2022-08-04T14:03:53.306Z,34.50
2022-08-04T14:06:49.488Z,28.00
2022-08-04T14:09:21.268Z,28.30
2022-08-04T14:12:10.548Z,28.20
2022-08-04T14:14:50.556Z,29.50
2022-08-04T14:17:24.854Z,28.60
2022-08-04T14:20:02.644Z,34.60
2022-08-04T14:22:35.953Z,28.90
2022-08-04T14:25:06.110Z,29.10
2022-08-04T14:27:53.970Z,29.10
2022-08-04T14:30:35.403Z,29.70
2022-08-04T14:34:02.816Z,30.00
2022-08-04T14:36:04.379Z,29.10
2022-08-04T14:38:51.649Z,29.30
2022-08-04T14:41:44.808Z,29.10
2022-08-04T14:46:55.184Z,36.00
2022-08-04T14:51:59.320Z,30.80
2022-08-04T14:54:33.085Z,33.60
2022-08-04T14:57:07.020Z,33.90
2022-08-04T14:59:59.436Z,28.50
2022-08-04T15:02:32.647Z,32.10
2022-08-04T15:06:02.440Z,28.70
2022-08-04T15:10:21.320Z,29.10
2022-08-04T15:20:35.280Z,29.20
2022-08-04T15:23:08.636Z,29.00
2022-08-04T15:25:47.675Z,33.00
2022-08-04T15:28:23.630Z,34.90
2022-08-04T15:30:54.116Z,28.70
2022-08-04T15:33:24.822Z,28.40
2022-08-04T15:36:40.054Z,31.30
2022-08-04T15:39:25.121Z,28.80
2022-08-04T15:42:20.976Z,29.10
2022-08-04T15:44:51.693Z,32.50
2022-08-04T15:50:13.485Z,29.00
2022-08-04T15:53:10.602Z,32.50
2022-08-04T15:55:43.836Z,29.20
2022-08-04T15:58:17.169Z,29.30
2022-08-04T16:01:04.485Z,29.20
2022-08-04T16:03:59.598Z,35.60
2022-08-04T16:16:42.410Z,35.40
2022-08-04T16:19:36.411Z,30.00
2022-08-04T16:22:04.946Z,30.00
2022-08-04T16:24:40.286Z,29.50
2022-08-04T16:27:10.100Z,30.20
2022-08-04T16:29:42.678Z,30.00
2022-08-04T16:32:20.474Z,34.10
2022-08-04T16:35:04.494Z,29.70
2022-08-04T16:37:38.337Z,35.50
2022-08-04T16:40:24.148Z,29.60
2022-08-04T16:47:49.629Z,35.80
2022-08-04T16:50:20.225Z,31.10
2022-08-04T16:52:55.784Z,36.40
2022-08-04T16:55:27.161Z,30.90
2022-08-04T16:58:01.588Z,30.60
2022-08-04T17:00:33.303Z,30.50
2022-08-04T17:03:11.402Z,31.00
2022-08-04T17:14:01.874Z,31.40
2022-08-04T17:18:54.207Z,31.60
2022-08-04T17:21:29.960Z,36.70
2022-08-04T17:24:15.027Z,32.20
2022-08-04T17:26:53.770Z,32.30
2022-08-04T17:29:43.210Z,32.80
2022-08-04T17:32:21.802Z,35.60
2022-08-04T17:34:52.843Z,33.50
2022-08-04T17:37:51.785Z,33.60
2022-08-04T17:40:18.502Z,39.70
2022-08-04T17:44:04.255Z,34.20
2022-08-04T17:46:29.183Z,40.80
2022-08-04T17:49:12.521Z,35.50
2022-08-04T17:52:05.898Z,43.70
2022-08-04T17:59:59.159Z,39.00
2022-08-04T18:02:34.852Z,41.10
2022-08-04T18:05:07.049Z,46.00
2022-08-04T18:08:40.479Z,50.00
2022-08-04T18:10:54.524Z,47.30
2022-08-04T18:13:28.215Z,42.30
2022-08-04T18:16:09.025Z,43.70
2022-08-04T18:42:02.311Z,54.00
2022-08-04T18:44:52.168Z,54.50
2022-08-04T18:47:29.850Z,59.70
2022-08-04T18:51:01.721Z,56.30
2022-08-04T18:55:56.631Z,58.80
2022-08-04T19:11:35.291Z,66.40
2022-08-04T19:13:54.633Z,68.00
2022-08-04T19:16:28.389Z,69.60
2022-08-04T19:27:06.859Z,81.70
2022-08-04T19:29:40.983Z,78.90
2022-08-04T19:32:14.513Z,80.60
2022-08-04T19:34:47.812Z,82.10
2022-08-04T19:37:58.173Z,83.60
2022-08-04T19:40:15.063Z,85.80
2022-08-04T19:45:15.845Z,89.10
2022-08-04T19:50:33.536Z,90.90
2022-08-04T19:58:09.336Z,91.70
2022-08-04T20:00:39.279Z,92.20
2022-08-04T20:03:13.814Z,92.30
2022-08-04T20:08:28.927Z,92.70
2022-08-04T20:16:28.407Z,98.00
2022-08-04T20:40:30.595Z,99.90
2022-08-04T20:42:59.619Z,99.90
2022-08-04T20:50:46.477Z,99.90
2022-08-04T20:55:55.161Z,99.90
2022-08-04T21:08:57.789Z,99.90
2022-08-04T21:14:01.392Z,99.90
2022-08-04T21:16:55.763Z,99.90
2022-08-04T21:24:26.313Z,99.90
2022-08-04T21:26:57.157Z,99.90
2022-08-04T21:29:34.564Z,99.90
2022-08-04T21:32:07.729Z,99.90
2022-08-04T21:34:38.941Z,99.90
2022-08-04T21:37:10.456Z,99.90
2022-08-04T21:44:58.479Z,99.90
2022-08-04T21:52:49.731Z,99.90
2022-08-04T22:13:07.015Z,99.90
2022-08-04T22:28:27.905Z,99.90
2022-08-04T22:30:57.505Z,99.90
2022-08-04T22:36:15.524Z,99.90
2022-08-04T22:38:51.144Z,99.90
2022-08-04T22:41:33.651Z,99.90
2022-08-04T22:44:02.612Z,99.90
2022-08-04T22:46:30.475Z,99.90
2022-08-04T22:48:58.291Z,99.90
2022-08-04T22:53:55.434Z,99.90
2022-08-04T23:14:59.180Z,99.90
2022-08-04T23:17:28.680Z,99.90
2022-08-04T23:19:59.227Z,99.90
2022-08-04T23:22:37.508Z,99.90
2022-08-04T23:25:16.302Z,99.90
2022-08-04T23:27:51.393Z,99.90
2022-08-04T23:30:29.718Z,99.90
2022-08-04T23:37:57.253Z,99.90
2022-08-04T23:40:34.407Z,99.90
2022-08-04T23:48:40.506Z,99.90
2022-08-04T23:51:15.075Z,99.90
2022-08-04T23:54:02.607Z,99.90
2022-08-04T23:56:33.923Z,99.90
